Time;durP1;ratioP1;P1;durP2;ratioP2;P2;SDS_P1;SDS_P2;PMS_P1;PMS_P2;Temp;Humidity;BMP_temperature;BMP_pressure;BME280_temperature;BME280_humidity;BME280_pressure;Samples;Min_cycle;Max_cycle;Signal;HPM_P1;HPM_P2
2022/01/23 00:01:34;;;;;;;9.27;2.13;;;7.30;97.40;;;;;;4991759;28;20058;-58
2022/01/23 00:04:02;;;;;;;7.10;2.10;;;7.30;97.40;;;;;;4992513;28;20509;-58
2022/01/23 00:06:29;;;;;;;8.63;2.05;;;7.40;97.40;;;;;;4990719;28;20054;-58
2022/01/23 00:08:56;;;;;;;10.20;2.45;;;7.30;97.30;;;;;;4992243;28;20057;-57
2022/01/23 00:11:26;;;;;;;6.82;2.20;;;7.30;97.30;;;;;;4991331;28;20053;-58
2022/01/23 00:17:20;;;;;;;7.28;2.40;;;7.30;97.40;;;;;;4992341;28;20529;-58
2022/01/23 00:19:51;;;;;;;7.13;2.75;;;7.30;97.40;;;;;;4992128;28;20264;-58
2022/01/23 00:22:20;;;;;;;10.15;3.40;;;7.30;97.50;;;;;;4990699;28;20052;-58
2022/01/23 00:33:03;;;;;;;9.68;3.05;;;7.20;97.40;;;;;;4990983;28;20137;-57
2022/01/23 00:35:33;;;;;;;10.80;2.65;;;7.30;97.40;;;;;;4992202;28;20181;-58
2022/01/23 00:38:01;;;;;;;9.68;2.55;;;7.40;97.40;;;;;;4992503;28;21876;-58
2022/01/23 00:40:29;;;;;;;6.25;2.92;;;7.30;97.40;;;;;;4991040;28;20061;-57
2022/01/23 00:42:58;;;;;;;6.55;2.67;;;7.30;97.50;;;;;;4992231;28;20054;-58
2022/01/23 00:45:32;;;;;;;8.07;2.55;;;7.30;97.50;;;;;;4991554;28;20560;-58
2022/01/23 00:48:03;;;;;;;7.88;2.85;;;7.30;97.50;;;;;;4990487;28;20125;-57
2022/01/23 00:50:33;;;;;;;6.60;2.63;;;7.30;97.40;;;;;;4991623;28;20047;-58
2022/01/23 00:53:00;;;;;;;7.18;2.42;;;7.30;97.50;;;;;;4990459;28;20054;-58
2022/01/23 00:55:27;;;;;;;11.77;3.20;;;7.30;97.40;;;;;;4990573;28;20060;-58
2022/01/23 00:57:54;;;;;;;6.95;2.63;;;7.30;97.50;;;;;;4990909;28;20050;-57
2022/01/23 01:00:21;;;;;;;11.88;3.00;;;7.40;97.50;;;;;;4989692;28;20050;-58
2022/01/23 01:02:49;;;;;;;8.70;3.03;;;7.40;97.50;;;;;;4989710;28;20279;-58
2022/01/23 01:05:16;;;;;;;11.13;3.67;;;7.40;97.40;;;;;;4991119;28;20059;-58
2022/01/23 01:07:44;;;;;;;8.98;3.00;;;7.40;97.40;;;;;;4990747;28;22486;-58
2022/01/23 01:10:18;;;;;;;8.57;3.22;;;7.50;97.40;;;;;;4991401;28;20061;-57
2022/01/23 01:12:47;;;;;;;9.30;3.10;;;7.40;97.40;;;;;;4991259;28;20161;-58
2022/01/23 01:31:47;;;;;;;8.93;3.35;;;7.30;97.40;;;;;;4990422;28;20042;-58
2022/01/23 01:34:19;;;;;;;8.55;3.35;;;7.30;97.40;;;;;;4991493;28;20054;-58
2022/01/23 01:36:48;;;;;;;10.25;3.55;;;7.30;97.30;;;;;;4990968;28;20061;-58
2022/01/23 01:39:18;;;;;;;10.05;3.42;;;7.40;97.30;;;;;;4990898;28;20561;-58
2022/01/23 01:41:46;;;;;;;9.10;3.78;;;7.40;97.20;;;;;;4990507;28;20065;-58
2022/01/23 01:44:14;;;;;;;12.48;3.45;;;7.30;97.20;;;;;;4993524;28;20061;-57
2022/01/23 01:46:41;;;;;;;9.68;3.67;;;7.40;97.20;;;;;;4993479;28;20130;-57
2022/01/23 01:49:08;;;;;;;9.32;3.50;;;7.40;97.20;;;;;;4993571;28;20169;-58
2022/01/23 01:51:35;;;;;;;9.45;3.05;;;7.40;97.20;;;;;;4993169;28;20133;-57
2022/01/23 01:54:10;;;;;;;10.63;3.42;;;7.40;97.30;;;;;;4992083;28;20050;-58
2022/01/23 01:56:48;;;;;;;9.68;3.58;;;7.40;97.30;;;;;;4993506;28;20779;-57
2022/01/23 01:59:34;;;;;;;8.93;4.15;;;7.30;97.30;;;;;;4993504;28;20050;-58
2022/01/23 02:10:15;;;;;;;12.40;3.65;;;7.30;97.40;;;;;;4993467;28;20125;-57
2022/01/23 02:13:06;;;;;;;13.55;4.13;;;7.10;97.30;;;;;;4992206;28;20147;-57
2022/01/23 02:18:29;;;;;;;10.88;3.75;;;7.40;97.40;;;;;;4981623;28;20060;-58
2022/01/23 02:24:10;;;;;;;8.80;3.63;;;7.40;97.40;;;;;;4993274;28;20042;-58
2022/01/23 02:51:40;;;;;;;9.57;3.85;;;7.30;97.80;;;;;;4993039;28;20046;-58
2022/01/23 02:54:25;;;;;;;6.18;3.15;;;7.30;97.70;;;;;;4992528;28;20058;-58
2022/01/23 02:56:55;;;;;;;10.20;3.95;;;7.30;97.70;;;;;;4992419;28;20925;-57
2022/01/23 02:59:24;;;;;;;12.10;3.45;;;7.30;97.80;;;;;;4992500;28;20058;-58
2022/01/23 03:02:08;;;;;;;9.15;3.88;;;7.30;97.80;;;;;;4991914;28;21426;-58
2022/01/23 03:04:38;;;;;;;8.13;3.28;;;7.30;97.80;;;;;;4992329;28;20152;-57
2022/01/23 03:07:20;;;;;;;8.00;3.28;;;7.30;97.80;;;;;;4991724;28;20060;-58
2022/01/23 03:09:59;;;;;;;9.07;3.50;;;7.30;97.80;;;;;;4993178;28;20054;-57
2022/01/23 03:15:18;;;;;;;9.80;3.55;;;7.30;97.80;;;;;;4991798;28;20039;-57
2022/01/23 03:26:22;;;;;;;10.57;3.58;;;7.30;97.90;;;;;;4967308;28;20059;-57
2022/01/23 03:29:05;;;;;;;11.65;3.97;;;7.30;98.00;;;;;;4992417;28;21220;-58
2022/01/23 03:31:41;;;;;;;10.27;4.30;;;7.30;98.00;;;;;;4990391;28;20065;-57
2022/01/23 03:34:08;;;;;;;10.57;4.30;;;7.40;98.00;;;;;;4992155;28;20050;-58
2022/01/23 03:36:36;;;;;;;13.38;4.20;;;7.40;98.00;;;;;;4990451;28;20046;-58
2022/01/23 03:39:06;;;;;;;11.30;4.00;;;7.40;98.00;;;;;;4991781;28;20571;-58
2022/01/23 03:41:35;;;;;;;9.15;3.80;;;7.40;97.90;;;;;;4991971;28;20050;-58
2022/01/23 03:44:04;;;;;;;15.23;4.93;;;7.40;97.90;;;;;;4992261;28;20062;-58
2022/01/23 03:46:49;;;;;;;10.85;3.42;;;7.40;97.90;;;;;;4990417;28;22521;-57
2022/01/23 03:49:32;;;;;;;9.95;4.10;;;7.40;97.90;;;;;;4991760;28;21580;-58
2022/01/23 03:52:03;;;;;;;15.00;4.75;;;7.40;98.00;;;;;;4992047;28;20077;-58
2022/01/23 03:54:31;;;;;;;10.43;4.13;;;7.40;98.00;;;;;;4991099;28;20058;-57
2022/01/23 03:57:01;;;;;;;11.75;4.47;;;7.30;98.10;;;;;;4991323;28;20058;-58
2022/01/23 03:59:30;;;;;;;9.10;4.13;;;7.30;98.10;;;;;;4992165;28;20051;-57
2022/01/23 04:01:57;;;;;;;10.63;4.20;;;7.30;98.20;;;;;;4991577;28;20042;-58
2022/01/23 04:04:39;;;;;;;9.27;3.85;;;7.30;98.20;;;;;;4991032;28;20062;-57
2022/01/23 04:07:07;;;;;;;8.60;3.85;;;7.30;98.20;;;;;;4990482;28;20050;-58
2022/01/23 04:09:35;;;;;;;9.07;3.92;;;7.30;98.20;;;;;;4991988;28;20062;-58
2022/01/23 04:12:05;;;;;;;12.75;3.85;;;7.30;98.30;;;;;;4991608;28;20046;-57
2022/01/23 04:14:34;;;;;;;10.18;4.38;;;7.30;98.30;;;;;;4991489;28;20253;-57
2022/01/23 04:17:50;;;;;;;9.20;3.83;;;7.30;98.40;;;;;;4991198;28;20104;-58
2022/01/23 04:20:30;;;;;;;10.90;3.97;;;7.30;98.50;;;;;;4991182;28;20061;-58
2022/01/23 04:33:55;;;;;;;8.88;4.28;;;7.30;98.50;;;;;;4990795;28;20046;-57
2022/01/23 05:01:13;;;;;;;6.55;3.33;;;7.20;98.70;;;;;;4988396;28;20046;-57
2022/01/23 05:04:07;;;;;;;9.60;4.10;;;7.20;98.70;;;;;;4988766;28;20053;-58
2022/01/23 05:06:42;;;;;;;10.68;4.60;;;7.20;98.70;;;;;;4990326;28;20140;-58
2022/01/23 05:09:10;;;;;;;7.97;3.63;;;7.20;98.80;;;;;;4990187;28;20101;-58
2022/01/23 05:11:37;;;;;;;7.43;3.80;;;7.20;98.80;;;;;;4989681;28;20133;-57
2022/01/23 05:14:05;;;;;;;7.53;3.83;;;7.20;98.80;;;;;;4990561;28;20046;-58
2022/01/23 05:16:33;;;;;;;8.57;4.35;;;7.20;98.80;;;;;;4990014;28;20156;-57
2022/01/23 05:19:01;;;;;;;8.63;4.32;;;7.30;98.80;;;;;;4992348;28;20054;-58
2022/01/23 05:21:51;;;;;;;7.88;3.90;;;7.20;98.80;;;;;;4994432;28;20054;-58
2022/01/23 05:24:19;;;;;;;8.50;3.58;;;7.30;98.70;;;;;;4994148;28;20065;-58
2022/01/23 05:26:47;;;;;;;6.82;3.95;;;7.20;98.70;;;;;;4992890;28;20058;-57
2022/01/23 05:29:15;;;;;;;8.45;4.30;;;7.20;98.70;;;;;;4993713;28;20058;-57
2022/01/23 05:31:43;;;;;;;9.23;4.32;;;7.20;98.80;;;;;;4992892;28;20046;-58
2022/01/23 05:34:10;;;;;;;8.82;4.32;;;7.10;98.80;;;;;;4992795;28;20050;-58
2022/01/23 05:36:37;;;;;;;7.95;4.25;;;7.20;99.00;;;;;;4993232;28;20197;-57
2022/01/23 05:39:04;;;;;;;11.25;4.32;;;7.20;98.90;;;;;;4993269;28;20054;-58
2022/01/23 05:41:31;;;;;;;9.30;4.35;;;7.20;98.90;;;;;;4993846;28;20085;-58
2022/01/23 05:43:58;;;;;;;7.65;4.68;;;7.20;98.90;;;;;;4994111;28;20256;-57
2022/01/23 05:46:25;;;;;;;11.68;4.85;;;7.20;98.90;;;;;;4991970;28;20053;-57
2022/01/23 05:48:53;;;;;;;10.23;4.68;;;7.20;98.90;;;;;;4992050;28;20055;-58
2022/01/23 05:51:20;;;;;;;11.15;4.55;;;7.20;98.90;;;;;;4992463;28;20058;-58
2022/01/23 05:53:48;;;;;;;13.00;5.35;;;7.20;98.90;;;;;;4992443;28;20061;-57
2022/01/23 05:56:16;;;;;;;9.40;4.88;;;7.20;98.80;;;;;;4992460;28;20124;-57
2022/01/23 05:58:43;;;;;;;12.02;4.32;;;7.10;98.80;;;;;;4993418;28;20058;-57
2022/01/23 06:01:10;;;;;;;7.20;3.65;;;7.10;98.80;;;;;;4992197;28;20043;-58
2022/01/23 06:03:37;;;;;;;8.55;3.95;;;7.10;98.80;;;;;;4993178;28;21266;-57
2022/01/23 06:06:05;;;;;;;10.95;4.28;;;7.10;98.90;;;;;;4991933;28;20212;-58
2022/01/23 06:08:32;;;;;;;10.57;4.63;;;7.10;98.90;;;;;;4991598;28;20057;-58
2022/01/23 06:10:59;;;;;;;7.65;4.13;;;7.10;98.90;;;;;;4992089;28;20061;-58
2022/01/23 06:13:27;;;;;;;9.23;4.32;;;7.10;98.90;;;;;;4991842;28;20059;-58
2022/01/23 06:15:55;;;;;;;11.23;4.72;;;7.10;98.90;;;;;;4993054;28;20193;-57
2022/01/23 06:18:22;;;;;;;8.45;4.25;;;7.10;98.90;;;;;;4993107;28;20058;-58
2022/01/23 06:20:49;;;;;;;7.97;4.72;;;7.00;98.80;;;;;;4992667;28;20061;-58
2022/01/23 06:23:17;;;;;;;8.45;4.00;;;7.00;98.90;;;;;;4992721;28;20058;-58
2022/01/23 06:25:46;;;;;;;9.40;4.60;;;7.00;98.80;;;;;;4993257;28;20056;-58
2022/01/23 06:28:15;;;;;;;7.72;4.25;;;7.00;98.80;;;;;;4993221;28;20061;-58
2022/01/23 06:30:42;;;;;;;8.48;4.38;;;7.00;98.80;;;;;;4993216;28;20054;-58
2022/01/23 06:33:09;;;;;;;8.13;4.47;;;7.00;98.80;;;;;;4993162;28;20050;-57
2022/01/23 06:35:37;;;;;;;8.98;4.15;;;7.00;98.70;;;;;;4994129;28;20588;-58
2022/01/23 06:38:04;;;;;;;8.65;4.38;;;7.00;98.70;;;;;;4992765;28;20148;-57
2022/01/23 06:40:33;;;;;;;7.35;4.40;;;6.90;98.70;;;;;;4993374;28;21527;-58
2022/01/23 06:43:00;;;;;;;10.05;4.75;;;6.90;98.60;;;;;;4992168;28;20146;-57
2022/01/23 06:45:26;;;;;;;12.52;4.80;;;6.90;98.50;;;;;;4992128;28;20054;-57
2022/01/23 06:47:53;;;;;;;7.72;4.65;;;6.90;98.60;;;;;;4992745;28;20046;-57
2022/01/23 06:50:20;;;;;;;9.77;4.82;;;6.80;98.50;;;;;;4993208;28;20245;-58
2022/01/23 06:52:47;;;;;;;8.48;4.57;;;6.90;98.80;;;;;;4990699;28;20287;-57
2022/01/23 06:55:17;;;;;;;6.97;4.00;;;6.80;98.40;;;;;;4991347;28;20721;-58
2022/01/23 06:57:45;;;;;;;12.52;5.07;;;6.80;98.60;;;;;;4992272;28;20128;-58
2022/01/23 07:00:12;;;;;;;8.52;4.30;;;6.80;98.40;;;;;;4993179;28;20047;-57
2022/01/23 07:02:39;;;;;;;8.85;4.70;;;6.70;98.40;;;;;;4990780;28;20063;-58
2022/01/23 07:05:07;;;;;;;10.18;4.43;;;6.70;98.50;;;;;;4991407;28;20323;-58
2022/01/23 07:07:33;;;;;;;6.70;3.83;;;6.70;98.50;;;;;;4991896;28;20189;-57
2022/01/23 07:10:00;;;;;;;9.85;4.57;;;6.70;98.50;;;;;;4992668;28;20050;-58
2022/01/23 07:12:27;;;;;;;9.40;4.28;;;6.70;98.50;;;;;;4991060;28;20055;-57
2022/01/23 07:14:55;;;;;;;7.07;4.18;;;6.70;98.50;;;;;;4990459;28;20042;-57
2022/01/23 07:17:22;;;;;;;6.97;3.72;;;6.70;98.50;;;;;;4991795;28;20129;-58
2022/01/23 07:19:49;;;;;;;9.27;4.07;;;6.70;98.60;;;;;;4991788;28;20054;-58
2022/01/23 07:22:16;;;;;;;8.38;4.07;;;6.70;98.70;;;;;;4990774;28;20129;-58
2022/01/23 07:24:43;;;;;;;9.95;4.40;;;6.70;98.80;;;;;;4991215;28;21285;-58
2022/01/23 07:27:16;;;;;;;8.35;4.85;;;6.70;98.80;;;;;;4991861;28;20065;-58
2022/01/23 07:29:44;;;;;;;6.15;3.92;;;6.70;98.90;;;;;;4992594;28;20054;-58
2022/01/23 07:32:12;;;;;;;7.07;4.10;;;6.70;98.90;;;;;;4991330;28;20054;-58
2022/01/23 07:34:39;;;;;;;7.90;4.22;;;6.70;99.00;;;;;;4992943;28;20057;-58
2022/01/23 07:37:06;;;;;;;6.47;3.50;;;6.80;99.00;;;;;;4991841;28;20105;-58
2022/01/23 07:39:33;;;;;;;8.75;3.78;;;6.70;99.00;;;;;;4992012;28;20042;-58
2022/01/23 07:42:00;;;;;;;7.25;4.00;;;6.80;99.10;;;;;;4991142;28;22211;-57
2022/01/23 07:44:26;;;;;;;6.65;3.85;;;6.80;99.20;;;;;;4992868;28;20061;-58
2022/01/23 07:46:54;;;;;;;6.90;4.32;;;6.80;99.20;;;;;;4991461;28;20061;-58
2022/01/23 07:49:22;;;;;;;6.93;4.07;;;6.80;99.20;;;;;;4992111;28;20814;-58
2022/01/23 07:51:49;;;;;;;6.90;3.72;;;6.90;99.30;;;;;;4990957;28;20050;-58
2022/01/23 07:54:16;;;;;;;8.48;4.53;;;6.90;99.30;;;;;;4991304;28;20954;-58
2022/01/23 07:56:43;;;;;;;11.00;4.78;;;6.90;99.20;;;;;;4988083;28;20054;-58
2022/01/23 07:59:10;;;;;;;8.15;4.30;;;6.90;99.30;;;;;;4988987;28;20189;-58
2022/01/23 08:01:39;;;;;;;9.73;4.80;;;6.90;99.30;;;;;;4990454;28;20529;-58
2022/01/23 08:04:06;;;;;;;11.00;4.93;;;6.90;99.40;;;;;;4989828;28;20169;-58
2022/01/23 08:06:40;;;;;;;9.63;4.50;;;6.90;99.50;;;;;;4990441;28;20061;-58
2022/01/23 08:09:08;;;;;;;8.55;4.28;;;6.90;99.40;;;;;;4990348;28;20159;-58
2022/01/23 08:11:35;;;;;;;9.38;4.68;;;7.00;99.50;;;;;;4989795;28;20103;-57
2022/01/23 08:14:03;;;;;;;6.72;3.95;;;7.00;99.50;;;;;;4988191;28;20062;-58
2022/01/23 08:16:30;;;;;;;8.05;4.72;;;7.00;99.50;;;;;;4982171;28;20054;-58
2022/01/23 08:18:57;;;;;;;6.20;3.75;;;7.00;99.50;;;;;;4988888;28;20061;-58
2022/01/23 08:21:24;;;;;;;7.70;4.57;;;7.10;99.50;;;;;;4986264;28;20046;-57
2022/01/23 08:23:54;;;;;;;7.18;3.90;;;7.10;99.60;;;;;;4990062;28;20058;-58
2022/01/23 08:26:22;;;;;;;5.68;3.20;;;7.10;99.60;;;;;;4989603;28;20050;-58
2022/01/23 08:28:49;;;;;;;7.13;3.80;;;7.10;99.60;;;;;;4990897;28;21466;-58
2022/01/23 08:31:16;;;;;;;6.90;4.03;;;7.10;99.60;;;;;;4981785;28;20058;-58
2022/01/23 08:33:43;;;;;;;8.52;4.22;;;7.10;99.60;;;;;;4986421;28;20092;-58
2022/01/23 08:36:10;;;;;;;7.00;4.03;;;7.20;99.60;;;;;;4988551;28;20596;-57
2022/01/23 08:38:37;;;;;;;9.15;3.78;;;7.20;99.60;;;;;;4988559;28;20050;-58
2022/01/23 08:43:50;;;;;;;7.70;4.13;;;7.20;99.60;;;;;;4990161;28;20428;-58
2022/01/23 08:46:18;;;;;;;7.78;4.32;;;7.20;99.60;;;;;;4989768;28;20058;-58
2022/01/23 08:48:45;;;;;;;6.32;3.60;;;7.20;99.60;;;;;;4989833;28;20060;-58
2022/01/23 08:51:13;;;;;;;7.28;4.20;;;7.20;99.70;;;;;;4990364;28;20061;-58
2022/01/23 08:53:40;;;;;;;10.73;4.18;;;7.20;99.70;;;;;;4988814;28;20169;-58
2022/01/23 08:56:08;;;;;;;7.63;4.13;;;7.20;99.80;;;;;;4988683;28;20881;-58
2022/01/23 08:58:35;;;;;;;8.45;4.50;;;7.30;99.90;;;;;;4990819;28;20153;-58
2022/01/23 09:01:02;;;;;;;8.18;4.68;;;7.30;99.90;;;;;;4989162;28;20081;-58
2022/01/23 09:03:29;;;;;;;10.40;4.47;;;7.40;99.90;;;;;;4989985;28;20054;-58
2022/01/23 09:05:56;;;;;;;7.97;4.40;;;7.40;99.90;;;;;;4985753;28;20060;-58
2022/01/23 09:08:23;;;;;;;10.50;4.72;;;7.50;99.90;;;;;;4986690;28;20050;-57
2022/01/23 09:10:55;;;;;;;6.90;3.92;;;7.60;99.90;;;;;;4981523;28;20054;-58
2022/01/23 09:13:39;;;;;;;8.20;4.32;;;7.50;99.80;;;;;;4986285;28;20055;-58
2022/01/23 09:16:07;;;;;;;7.72;4.40;;;7.50;99.80;;;;;;4986351;28;20169;-58
2022/01/23 09:18:34;;;;;;;7.72;3.88;;;7.60;99.80;;;;;;4987792;28;20568;-58
2022/01/23 09:21:01;;;;;;;7.97;4.10;;;7.60;99.80;;;;;;4984645;28;20062;-58
2022/01/23 09:23:28;;;;;;;6.43;3.47;;;7.60;99.80;;;;;;4983823;28;20055;-58
2022/01/23 09:25:57;;;;;;;6.57;3.58;;;7.60;99.80;;;;;;4984726;28;20050;-58
2022/01/23 09:28:31;;;;;;;6.00;3.22;;;7.70;99.70;;;;;;4985383;28;20062;-57
2022/01/23 09:31:26;;;;;;;4.88;2.42;;;7.70;99.80;;;;;;4987040;28;20061;-58
2022/01/23 09:33:53;;;;;;;5.10;2.67;;;7.90;99.90;;;;;;4983890;28;20046;-58
2022/01/23 09:36:20;;;;;;;6.03;2.70;;;7.80;99.60;;;;;;4986741;28;20050;-58
2022/01/23 09:38:47;;;;;;;5.00;2.67;;;7.80;99.60;;;;;;4987826;28;20046;-58
2022/01/23 09:41:18;;;;;;;4.80;2.72;;;7.80;99.50;;;;;;4987595;28;20104;-58
2022/01/23 09:43:47;;;;;;;7.35;3.03;;;7.80;99.60;;;;;;4983366;28;20059;-58
2022/01/23 09:46:15;;;;;;;6.53;3.20;;;7.80;99.50;;;;;;4985345;28;21618;-58
2022/01/23 09:48:44;;;;;;;5.70;3.10;;;7.80;99.50;;;;;;4987327;28;20197;-58
2022/01/23 09:51:11;;;;;;;8.10;3.33;;;7.80;99.50;;;;;;4986666;28;20061;-58
2022/01/23 09:53:40;;;;;;;7.03;3.30;;;7.80;99.40;;;;;;4978263;28;20065;-58
2022/01/23 09:56:09;;;;;;;5.68;3.03;;;7.80;99.30;;;;;;4984859;28;20433;-58
2022/01/23 09:58:38;;;;;;;5.82;3.03;;;7.80;99.20;;;;;;4984955;28;20050;-58
2022/01/23 10:01:07;;;;;;;6.15;3.10;;;7.70;99.20;;;;;;4984555;28;20050;-58
2022/01/23 10:03:33;;;;;;;5.22;2.50;;;7.70;99.20;;;;;;4984432;28;20057;-57
2022/01/23 10:06:00;;;;;;;5.25;2.38;;;7.70;99.20;;;;;;4988026;28;20080;-58
2022/01/23 10:08:29;;;;;;;6.18;3.20;;;7.80;99.20;;;;;;4989487;28;20830;-58
2022/01/23 10:10:56;;;;;;;5.95;3.20;;;7.80;99.20;;;;;;4990378;28;20564;-57
2022/01/23 10:13:25;;;;;;;7.72;3.22;;;7.80;99.10;;;;;;4990341;28;20065;-58
2022/01/23 10:15:53;;;;;;;5.53;3.05;;;7.70;99.10;;;;;;4986403;28;20068;-58
2022/01/23 10:18:26;;;;;;;6.00;3.22;;;7.80;99.10;;;;;;4980213;28;21214;-56
2022/01/23 10:20:53;;;;;;;6.25;2.90;;;7.80;99.20;;;;;;4981309;28;20129;-56
2022/01/23 10:23:20;;;;;;;6.20;3.47;;;7.80;99.20;;;;;;4984131;28;20205;-60
2022/01/23 10:25:48;;;;;;;6.55;2.88;;;7.90;99.10;;;;;;4982412;28;20173;-60
2022/01/23 10:28:19;;;;;;;8.65;3.50;;;7.90;99.00;;;;;;4983632;28;20058;-63
2022/01/23 10:30:51;;;;;;;6.55;2.72;;;7.90;98.90;;;;;;4983686;28;21816;-63
2022/01/23 10:33:22;;;;;;;4.68;2.08;;;7.90;98.90;;;;;;4984385;28;20861;-63
2022/01/23 10:35:58;;;;;;;5.13;2.78;;;7.90;98.60;;;;;;4984057;28;20066;-63
2022/01/23 10:38:28;;;;;;;6.45;2.58;;;8.00;98.60;;;;;;4985459;28;20058;-63
2022/01/23 10:41:08;;;;;;;5.65;3.15;;;8.00;98.60;;;;;;4985058;28;20537;-63
2022/01/23 10:46:41;;;;;;;7.25;2.95;;;8.10;98.60;;;;;;4981319;28;20046;-61
2022/01/23 10:49:09;;;;;;;6.55;2.65;;;8.10;98.60;;;;;;4975649;28;21191;-61
2022/01/23 10:51:36;;;;;;;5.70;2.92;;;8.10;98.50;;;;;;4981008;28;20054;-62
2022/01/23 10:54:13;;;;;;;4.85;2.25;;;8.10;98.40;;;;;;4983149;28;20057;-61
2022/01/23 10:56:57;;;;;;;4.70;2.65;;;8.10;98.10;;;;;;4981505;28;20065;-61
2022/01/23 10:59:27;;;;;;;;;;;8.20;98.10;;;;;;4982635;28;20798;-61
2022/01/23 11:02:02;;;;;;;5.97;2.95;;;8.20;98.10;;;;;;4982179;28;19993;-61
2022/01/23 11:04:32;;;;;;;6.28;2.83;;;8.20;98.10;;;;;;4982000;28;20081;-61
2022/01/23 11:07:01;;;;;;;6.38;3.03;;;8.20;97.90;;;;;;4984771;28;20054;-61
2022/01/23 11:09:33;;;;;;;5.35;3.00;;;8.20;97.90;;;;;;4983294;28;20156;-62
2022/01/23 11:12:03;;;;;;;5.32;2.53;;;8.20;97.70;;;;;;4984502;28;20055;-62
2022/01/23 11:17:22;;;;;;;7.35;3.08;;;8.20;97.60;;;;;;4983252;28;20038;-61
2022/01/23 11:19:52;;;;;;;5.80;3.30;;;8.20;97.60;;;;;;4980339;28;20050;-61
2022/01/23 11:22:21;;;;;;;5.22;2.95;;;8.20;97.50;;;;;;4981356;28;20058;-61
2022/01/23 11:24:49;;;;;;;8.05;3.05;;;8.20;97.60;;;;;;4982620;28;20193;-61
2022/01/23 11:27:17;;;;;;;4.78;2.78;;;8.20;97.70;;;;;;4984058;28;20794;-61
2022/01/23 11:29:59;;;;;;;6.32;2.78;;;8.30;97.70;;;;;;4983236;28;20218;-61
2022/01/23 11:32:33;;;;;;;5.18;2.75;;;8.30;97.50;;;;;;4984457;28;20057;-61
2022/01/23 11:35:07;;;;;;;4.63;2.72;;;8.30;97.30;;;;;;4984430;28;20141;-61
2022/01/23 11:37:35;;;;;;;6.25;3.00;;;8.40;97.50;;;;;;4984736;28;20054;-61
2022/01/23 11:40:21;;;;;;;4.72;2.60;;;8.40;97.50;;;;;;4984333;28;20054;-61
2022/01/23 11:54:07;;;;;;;9.07;3.47;;;8.40;97.30;;;;;;4952186;28;20070;-60
2022/01/23 11:56:38;;;;;;;4.65;1.98;;;8.50;97.10;;;;;;4977482;28;20054;-61
2022/01/23 11:59:27;;;;;;;4.32;1.83;;;8.50;97.30;;;;;;4976698;28;22184;-61
2022/01/23 12:02:23;;;;;;;4.38;2.17;;;8.40;96.80;;;;;;4978566;28;20050;-61
2022/01/23 12:05:21;;;;;;;5.75;1.98;;;8.50;96.70;;;;;;4977551;28;20086;-61
2022/01/23 12:08:32;;;;;;;4.80;1.98;;;8.40;96.80;;;;;;4977922;28;20081;-61
2022/01/23 12:11:34;;;;;;;4.30;2.13;;;8.40;96.60;;;;;;4978948;28;20058;-61
2022/01/23 12:17:41;;;;;;;4.18;1.67;;;8.40;96.80;;;;;;4977876;28;20103;-60
2022/01/23 12:20:10;;;;;;;5.18;1.73;;;8.50;96.60;;;;;;4973732;28;20062;-61
2022/01/23 12:22:53;;;;;;;4.35;2.05;;;8.50;96.70;;;;;;4977673;28;20102;-61
2022/01/23 12:25:30;;;;;;;5.67;2.03;;;8.50;96.70;;;;;;4977958;28;20162;-61
2022/01/23 12:28:21;;;;;;;4.03;1.70;;;8.40;96.60;;;;;;4977664;28;20117;-61
2022/01/23 12:30:50;;;;;;;5.47;1.80;;;8.50;96.20;;;;;;4977671;28;20053;-61
2022/01/23 12:33:30;;;;;;;4.55;2.03;;;8.50;96.50;;;;;;4978615;28;20055;-61
2022/01/23 12:36:20;;;;;;;4.55;1.90;;;8.50;96.50;;;;;;4979293;28;20054;-57
2022/01/23 12:38:49;;;;;;;5.28;2.03;;;8.50;96.10;;;;;;4978932;28;20153;-57
2022/01/23 12:41:32;;;;;;;5.35;2.03;;;8.50;96.30;;;;;;4977447;28;20051;-57
2022/01/23 12:44:03;;;;;;;4.45;2.10;;;8.50;96.30;;;;;;4977800;28;20081;-61
2022/01/23 12:46:37;;;;;;;4.65;1.88;;;8.50;96.30;;;;;;4975871;28;20046;-61
2022/01/23 12:49:29;;;;;;;4.72;1.83;;;8.40;96.10;;;;;;4977082;28;20061;-61
2022/01/23 12:52:15;;;;;;;4.15;2.15;;;8.50;96.00;;;;;;4958611;28;20065;-61
2022/01/23 12:54:58;;;;;;;3.45;1.73;;;8.40;95.90;;;;;;4977032;28;20065;-60
2022/01/23 12:57:37;;;;;;;4.93;1.77;;;8.40;96.00;;;;;;4974553;28;20050;-61
2022/01/23 13:00:10;;;;;;;5.63;2.22;;;8.50;96.20;;;;;;4975563;28;20061;-61
2022/01/23 13:02:43;;;;;;;4.55;2.20;;;8.50;96.20;;;;;;4975665;28;20125;-61
2022/01/23 13:05:14;;;;;;;5.93;2.10;;;8.50;96.30;;;;;;4977560;28;20057;-60
2022/01/23 13:07:47;;;;;;;5.15;2.25;;;8.50;96.30;;;;;;4978157;28;20513;-61
2022/01/23 13:10:29;;;;;;;5.00;2.13;;;8.60;96.30;;;;;;4977984;28;20124;-60
2022/01/23 13:13:12;;;;;;;6.13;2.50;;;8.60;96.10;;;;;;4976887;28;20189;-60
2022/01/23 13:16:02;;;;;;;8.00;2.05;;;8.60;96.00;;;;;;4977826;28;20054;-60
2022/01/23 13:18:42;;;;;;;5.75;2.38;;;8.60;95.90;;;;;;4978357;28;20068;-60
2022/01/23 13:32:19;;;;;;;5.57;2.58;;;8.60;96.20;;;;;;4977043;28;20179;-60
2022/01/23 13:34:51;;;;;;;7.57;3.03;;;8.60;96.20;;;;;;4956418;28;20129;-61
2022/01/23 13:37:21;;;;;;;4.97;2.45;;;8.60;96.20;;;;;;4976840;28;20901;-61
2022/01/23 13:39:54;;;;;;;7.13;2.70;;;8.70;96.20;;;;;;4978886;28;20260;-61
2022/01/23 13:42:48;;;;;;;7.20;2.42;;;8.60;96.00;;;;;;4978652;28;20858;-61
2022/01/23 13:48:39;;;;;;;7.75;2.72;;;8.60;95.70;;;;;;4979935;28;20050;-61
2022/01/23 13:51:29;;;;;;;6.40;2.80;;;8.60;95.80;;;;;;4979372;28;20490;-60
2022/01/23 13:59:36;;;;;;;6.43;3.58;;;8.50;95.80;;;;;;4980428;28;20572;-61
2022/01/23 14:02:14;;;;;;;6.50;3.50;;;8.60;95.80;;;;;;4973450;28;20054;-60
2022/01/23 14:04:44;;;;;;;6.40;3.53;;;8.60;95.80;;;;;;4980873;28;20055;-61
2022/01/23 14:07:12;;;;;;;6.00;3.28;;;8.40;95.70;;;;;;4981160;28;20066;-61
2022/01/23 14:09:41;;;;;;;7.70;3.53;;;8.60;95.80;;;;;;4982680;28;20054;-61
2022/01/23 14:12:10;;;;;;;6.32;2.85;;;8.60;95.80;;;;;;4979626;28;20261;-61
2022/01/23 14:14:38;;;;;;;5.68;2.95;;;8.50;95.70;;;;;;4981874;28;20050;-61
2022/01/23 14:17:16;;;;;;;6.68;2.83;;;8.30;95.70;;;;;;4981181;28;20228;-61
2022/01/23 14:19:57;;;;;;;6.72;2.95;;;8.50;95.60;;;;;;4981110;28;20058;-61
2022/01/23 14:22:28;;;;;;;7.70;3.03;;;8.50;95.30;;;;;;4982552;28;20056;-61
2022/01/23 14:25:10;;;;;;;6.18;2.78;;;8.50;95.50;;;;;;4981881;28;20043;-61
2022/01/23 14:27:38;;;;;;;7.75;3.25;;;8.40;95.40;;;;;;4981107;28;20050;-62
2022/01/23 14:30:09;;;;;;;5.82;3.15;;;8.50;95.40;;;;;;4981135;28;20061;-61
2022/01/23 14:32:44;;;;;;;5.25;2.45;;;8.50;95.40;;;;;;4979374;28;20050;-61
2022/01/23 14:35:13;;;;;;;5.40;2.55;;;8.40;95.30;;;;;;4981184;28;20094;-60
2022/01/23 14:37:42;;;;;;;6.93;3.22;;;8.40;95.40;;;;;;4980172;28;20633;-61
2022/01/23 14:40:14;;;;;;;6.47;3.08;;;8.40;95.40;;;;;;4981654;28;20060;-61
2022/01/23 14:42:56;;;;;;;6.63;2.97;;;8.40;95.40;;;;;;4981268;28;20065;-60
2022/01/23 14:45:24;;;;;;;5.90;3.25;;;8.40;95.40;;;;;;4982157;28;20050;-60
2022/01/23 14:47:52;;;;;;;6.00;2.53;;;8.40;95.40;;;;;;4979052;28;20132;-60
2022/01/23 14:50:21;;;;;;;7.57;3.75;;;8.40;95.50;;;;;;4980635;28;20137;-62
2022/01/23 14:52:49;;;;;;;6.35;3.10;;;8.40;95.50;;;;;;4982999;28;20057;-59
2022/01/23 14:55:16;;;;;;;10.32;2.90;;;8.40;95.60;;;;;;4981985;28;20050;-59
2022/01/23 14:57:44;;;;;;;6.78;3.08;;;8.40;95.60;;;;;;4979945;28;20205;-59
2022/01/23 15:00:16;;;;;;;7.97;2.83;;;8.40;95.40;;;;;;4980628;28;20052;-59
2022/01/23 15:02:44;;;;;;;7.80;3.13;;;8.40;95.30;;;;;;4980499;28;20054;-59
2022/01/23 15:05:12;;;;;;;5.97;2.72;;;8.40;95.30;;;;;;4982643;28;20054;-59
2022/01/23 15:07:42;;;;;;;6.13;3.13;;;8.30;95.20;;;;;;4982658;28;20124;-59
2022/01/23 15:10:11;;;;;;;6.40;3.00;;;8.30;95.10;;;;;;4982785;28;20046;-59
2022/01/23 15:12:38;;;;;;;7.85;2.70;;;8.30;95.10;;;;;;4982736;28;20101;-58
2022/01/23 15:15:06;;;;;;;5.88;2.92;;;8.30;95.20;;;;;;4982701;28;20893;-58
2022/01/23 15:17:34;;;;;;;5.53;2.63;;;8.20;95.20;;;;;;4982341;28;20054;-58
2022/01/23 15:20:01;;;;;;;6.63;2.80;;;8.20;95.30;;;;;;4979666;28;20050;-59
2022/01/23 15:22:29;;;;;;;7.93;3.00;;;8.20;95.30;;;;;;4981522;28;20077;-58
2022/01/23 15:24:56;;;;;;;8.18;3.10;;;8.20;95.40;;;;;;4979538;28;20058;-58
2022/01/23 15:27:23;;;;;;;6.60;3.00;;;8.10;95.40;;;;;;4979428;28;20047;-58
2022/01/23 15:29:50;;;;;;;6.43;3.08;;;8.10;95.40;;;;;;4980542;28;20052;-59
2022/01/23 15:32:17;;;;;;;6.20;2.75;;;8.10;95.40;;;;;;4979502;28;20082;-59
2022/01/23 15:34:45;;;;;;;5.63;2.90;;;8.00;95.40;;;;;;4980173;28;20058;-58
2022/01/23 15:37:13;;;;;;;8.02;3.20;;;8.10;95.50;;;;;;4978782;28;20061;-59
2022/01/23 15:39:42;;;;;;;6.32;3.00;;;8.00;95.50;;;;;;4980530;28;20096;-59
2022/01/23 15:42:09;;;;;;;8.27;3.00;;;8.00;95.50;;;;;;4980465;28;20065;-58
2022/01/23 15:44:37;;;;;;;8.45;3.40;;;8.00;95.50;;;;;;4978739;28;20062;-59
2022/01/23 15:47:05;;;;;;;10.05;3.28;;;8.00;95.50;;;;;;4980637;28;20061;-58
2022/01/23 15:49:32;;;;;;;7.78;3.10;;;8.00;95.60;;;;;;4981955;28;20167;-59
2022/01/23 15:51:59;;;;;;;6.40;3.72;;;7.90;95.60;;;;;;4981330;28;20051;-59
2022/01/23 15:54:26;;;;;;;8.10;3.20;;;7.90;95.70;;;;;;4981996;28;20050;-58